Impacts TAF Board INFO
FOR SITUATIONAL AWARENESS. NOT TO BE USED FOR FLIGHT PLANNING PURPOSES.
IDs:

KLAX - Los Angeles Intl, CA, US

Issued at 1122 UTC 25 Feb 2018
Updated at 1329 UTC 25 Feb 2018
Potential Impact None Slight Moderate High
Time1253Z 25/14Z 25/15Z 25/16Z 25/17Z 25/18Z 25/19Z 25/20Z 25/21Z 25/22Z 25/23Z 26/00Z 26/01Z 26/02Z>>
Type OBS PRVL PRVL PRVL PRVL PRVL PRVL PRVL PRVL PRVL PRVL PRVL PRVL PRVL
VIS 10 >6 >6 >6 >6 >6 >6 >6 >6 >6 >6 >6 >6 >6
CIG -- -- -- -- -- -- -- -- -- -- -- -- -- --
Cover CLR SKC SKC SKC SKC SKC SKC SKC SKC SKC SKC SKC SKC SKC
FltCat VFR VFR VFR VFR VFR VFR VFR VFR VFR VFR VFR VFR VFR VFR
WX -- -- -- -- -- -- -- -- -- -- -- -- -- --
WDir 50 60 60 60 60 VRB VRB VRB 270 270 270 270 270 270
WSpd 6 6 6 6 6 3 3 3 12 12 12 12 12 12
WGst -- -- -- -- -- -- -- -- -- -- -- -- -- --

Raw TAF
KLAX 251122Z 2512/2618 06006KT P6SM SKC
  FM251800 VRB03KT P6SM SKC
  FM252100 27012KT P6SM SKC
  FM260400 VRB03KT P6SM SKC
  FM261100 08005KT P6SM SKC


Raw METAR
KLAX 251253Z 05006KT 10SM CLR 08/01 A3018 RMK AO2 SLP219 T00780006
KLAX 251153Z 08005KT 10SM CLR 07/00 A3017 RMK AO2 SLP217 T00670000 10122 20067 56005
KLAX 251053Z 05008KT 10SM CLR 08/01 A3017 RMK AO2 SLP216 T00830006

METAR Board
Radar Display
Forecast Discussion

FOR SITUATIONAL AWARENESS. NOT TO BE USED FOR FLIGHT PLANNING PURPOSES.